VTST

Trang Airport

Thailand
TAF VTST 211700Z 2118/2218 26006KT 9999 FEW020 BECMG 2200/2202 26012KT
Issued Valid From Valid To
Jul-21 @ 17:00 UTC
(6 hours ago)
Jul-21 @ 18:00 UTC
(5 hours ago)
Jul-22 @ 18:00 UTC
(in 19 hours)
Jul-21 @ 18:00 to Jul-22 @ 00:00
TAF VTST 211700Z 2118/2218 26006KT 9999 FEW020
Wind Visibility Clouds
260° at 6 knots 10,000+ meters
  • Few at 2,000' AGL
Becoming Jul-22 @ 00:00 to Jul-22 @ 18:00
BECMG 2200/2202 26012KT
Wind Visibility Clouds
260° at 12 knots 10,000+ meters
  • Few at 2,000' AGL
TAF VTST 211700Z 2118/2218 26006KT 9999 FEW020 BECMG 2200/2202 26012KT
Issued Jul-21 @ 17:00 UTC
(6 hours ago)
Valid From Jul-21 @ 18:00 UTC
(5 hours ago)
Valid To Jul-22 @ 18:00 UTC
(in 19 hours)
Jul-21 @ 18:00 - Jul-22 @ 00:00
Wind Visibility
260° at 6 knots 10,000+ meters
Clouds
  • Few at 2,000' AGL
Becoming Jul-22 @ 00:00 - Jul-22 @ 18:00
Wind Visibility
260° at 12 knots 10,000+ meters
Clouds
  • Few at 2,000' AGL